sensor_id;sensor_type;location;lat;lon;timestamp;noise_LAeq;noise_LA_min;noise_LA_max;noise_LA01;noise_LA95
36217;Laerm;22259;48.792;8.964;2022-09-01T00:00:49;42.40;39.34;44.99;;
36217;Laerm;22259;48.792;8.964;2022-09-01T00:03:18;42.88;40.21;45.49;;
36217;Laerm;22259;48.792;8.964;2022-09-01T00:05:44;42.27;39.95;48.47;;
36217;Laerm;22259;48.792;8.964;2022-09-01T00:08:11;41.94;39.21;44.57;;
36217;Laerm;22259;48.792;8.964;2022-09-01T00:10:36;41.16;38.37;43.42;;
36217;Laerm;22259;48.792;8.964;2022-09-01T00:13:01;41.46;38.78;44.57;;
36217;Laerm;22259;48.792;8.964;2022-09-01T00:15:31;41.73;39.18;44.34;;
36217;Laerm;22259;48.792;8.964;2022-09-01T00:17:56;41.30;38.85;44.07;;
36217;Laerm;22259;48.792;8.964;2022-09-01T00:20:21;42.11;39.31;48.39;;
36217;Laerm;22259;48.792;8.964;2022-09-01T00:22:47;42.59;39.43;46.11;;
36217;Laerm;22259;48.792;8.964;2022-09-01T00:25:12;42.34;39.63;51.05;;
36217;Laerm;22259;48.792;8.964;2022-09-01T00:27:37;41.80;39.40;43.83;;
36217;Laerm;22259;48.792;8.964;2022-09-01T00:30:03;42.04;39.31;44.17;;
36217;Laerm;22259;48.792;8.964;2022-09-01T00:32:29;44.36;39.81;55.05;;
36217;Laerm;22259;48.792;8.964;2022-09-01T00:34:54;42.68;39.73;49.14;;
36217;Laerm;22259;48.792;8.964;2022-09-01T00:37:20;43.02;40.26;48.30;;
36217;Laerm;22259;48.792;8.964;2022-09-01T00:39:45;43.12;40.53;46.46;;
36217;Laerm;22259;48.792;8.964;2022-09-01T00:42:10;43.19;40.18;46.28;;
36217;Laerm;22259;48.792;8.964;2022-09-01T00:44:36;42.79;39.46;46.25;;
36217;Laerm;22259;48.792;8.964;2022-09-01T00:47:02;42.34;39.58;44.71;;
36217;Laerm;22259;48.792;8.964;2022-09-01T00:49:40;42.24;39.08;45.17;;
36217;Laerm;22259;48.792;8.964;2022-09-01T00:52:11;41.83;39.02;45.13;;
36217;Laerm;22259;48.792;8.964;2022-09-01T00:54:39;41.92;38.95;46.37;;
36217;Laerm;22259;48.792;8.964;2022-09-01T00:57:05;42.13;39.61;44.74;;
36217;Laerm;22259;48.792;8.964;2022-09-01T00:59:32;42.20;39.25;44.00;;
36217;Laerm;22259;48.792;8.964;2022-09-01T01:01:59;42.53;39.25;45.56;;
36217;Laerm;22259;48.792;8.964;2022-09-01T01:04:24;43.40;41.04;46.92;;
36217;Laerm;22259;48.792;8.964;2022-09-01T01:06:52;43.19;41.12;45.30;;
36217;Laerm;22259;48.792;8.964;2022-09-01T01:09:26;43.61;40.53;47.88;;
36217;Laerm;22259;48.792;8.964;2022-09-01T01:11:52;43.67;40.88;46.36;;
36217;Laerm;22259;48.792;8.964;2022-09-01T01:14:17;44.25;41.50;49.36;;
36217;Laerm;22259;48.792;8.964;2022-09-01T01:16:45;43.82;39.87;49.87;;
36217;Laerm;22259;48.792;8.964;2022-09-01T01:19:17;43.86;40.87;47.31;;
36217;Laerm;22259;48.792;8.964;2022-09-01T01:25:26;43.31;39.95;50.20;;
36217;Laerm;22259;48.792;8.964;2022-09-01T01:28:02;44.53;42.01;47.29;;
36217;Laerm;22259;48.792;8.964;2022-09-01T01:30:27;43.98;41.61;46.63;;
36217;Laerm;22259;48.792;8.964;2022-09-01T01:33:01;43.75;41.30;46.65;;
36217;Laerm;22259;48.792;8.964;2022-09-01T01:35:26;43.72;41.08;46.18;;
36217;Laerm;22259;48.792;8.964;2022-09-01T01:37:52;43.58;41.26;45.80;;
36217;Laerm;22259;48.792;8.964;2022-09-01T01:40:19;43.49;41.06;45.93;;
36217;Laerm;22259;48.792;8.964;2022-09-01T01:42:48;43.57;40.38;45.78;;
36217;Laerm;22259;48.792;8.964;2022-09-01T01:45:14;42.97;40.53;45.79;;
36217;Laerm;22259;48.792;8.964;2022-09-01T01:47:44;43.20;40.78;48.35;;
36217;Laerm;22259;48.792;8.964;2022-09-01T01:50:27;43.89;41.42;59.22;;
36217;Laerm;22259;48.792;8.964;2022-09-01T01:52:54;43.53;39.97;47.35;;
36217;Laerm;22259;48.792;8.964;2022-09-01T01:55:21;44.07;40.95;47.70;;
36217;Laerm;22259;48.792;8.964;2022-09-01T01:57:51;44.02;40.48;48.80;;
36217;Laerm;22259;48.792;8.964;2022-09-01T02:00:19;51.02;40.55;68.95;;
36217;Laerm;22259;48.792;8.964;2022-09-01T02:02:46;43.42;40.31;46.45;;
36217;Laerm;22259;48.792;8.964;2022-09-01T02:05:19;43.61;40.69;46.14;;
36217;Laerm;22259;48.792;8.964;2022-09-01T02:07:49;43.88;40.82;46.85;;
36217;Laerm;22259;48.792;8.964;2022-09-01T02:10:15;44.01;40.67;48.21;;
36217;Laerm;22259;48.792;8.964;2022-09-01T02:12:40;44.19;40.93;49.04;;
36217;Laerm;22259;48.792;8.964;2022-09-01T02:15:06;44.45;41.81;49.49;;
36217;Laerm;22259;48.792;8.964;2022-09-01T02:17:32;44.35;41.40;46.76;;
36217;Laerm;22259;48.792;8.964;2022-09-01T02:19:57;43.79;40.93;46.92;;
36217;Laerm;22259;48.792;8.964;2022-09-01T02:22:23;43.91;40.62;46.95;;
36217;Laerm;22259;48.792;8.964;2022-09-01T02:24:48;43.51;41.26;45.27;;
36217;Laerm;22259;48.792;8.964;2022-09-01T02:27:16;43.51;41.14;45.88;;
36217;Laerm;22259;48.792;8.964;2022-09-01T02:29:46;44.03;41.42;47.26;;
36217;Laerm;22259;48.792;8.964;2022-09-01T02:32:11;44.45;42.16;46.85;;
36217;Laerm;22259;48.792;8.964;2022-09-01T02:34:36;45.88;42.50;50.25;;
36217;Laerm;22259;48.792;8.964;2022-09-01T02:37:03;44.61;41.28;59.39;;
36217;Laerm;22259;48.792;8.964;2022-09-01T02:39:30;45.57;43.19;49.64;;
36217;Laerm;22259;48.792;8.964;2022-09-01T02:41:58;44.30;42.09;48.49;;
36217;Laerm;22259;48.792;8.964;2022-09-01T02:44:25;44.57;42.18;52.73;;
36217;Laerm;22259;48.792;8.964;2022-09-01T02:46:51;49.45;40.71;63.81;;
36217;Laerm;22259;48.792;8.964;2022-09-01T02:49:18;51.87;42.76;69.42;;
36217;Laerm;22259;48.792;8.964;2022-09-01T02:51:49;45.38;42.47;49.00;;
36217;Laerm;22259;48.792;8.964;2022-09-01T02:54:18;45.52;42.59;55.73;;
36217;Laerm;22259;48.792;8.964;2022-09-01T02:56:47;44.96;42.62;49.15;;
36217;Laerm;22259;48.792;8.964;2022-09-01T02:59:17;44.97;42.50;49.55;;
36217;Laerm;22259;48.792;8.964;2022-09-01T03:01:46;45.04;42.65;51.78;;
36217;Laerm;22259;48.792;8.964;2022-09-01T03:04:11;49.16;41.61;65.48;;
36217;Laerm;22259;48.792;8.964;2022-09-01T03:06:37;44.39;42.24;47.27;;
36217;Laerm;22259;48.792;8.964;2022-09-01T03:09:04;44.45;42.30;46.92;;
36217;Laerm;22259;48.792;8.964;2022-09-01T03:11:31;45.69;42.46;52.49;;
36217;Laerm;22259;48.792;8.964;2022-09-01T03:13:56;45.38;42.65;50.89;;
36217;Laerm;22259;48.792;8.964;2022-09-01T03:16:22;51.18;43.14;69.52;;
36217;Laerm;22259;48.792;8.964;2022-09-01T03:18:47;46.73;42.96;53.86;;
36217;Laerm;22259;48.792;8.964;2022-09-01T03:21:14;47.33;43.91;51.69;;
36217;Laerm;22259;48.792;8.964;2022-09-01T03:23:41;59.61;44.54;71.54;;
36217;Laerm;22259;48.792;8.964;2022-09-01T03:26:07;47.23;43.77;57.71;;
36217;Laerm;22259;48.792;8.964;2022-09-01T03:28:33;46.16;43.73;49.19;;
36217;Laerm;22259;48.792;8.964;2022-09-01T03:30:58;49.78;43.72;66.12;;
36217;Laerm;22259;48.792;8.964;2022-09-01T03:33:24;49.31;43.81;64.21;;
36217;Laerm;22259;48.792;8.964;2022-09-01T03:35:50;45.37;43.43;48.24;;
36217;Laerm;22259;48.792;8.964;2022-09-01T03:38:15;51.12;43.78;64.74;;
36217;Laerm;22259;48.792;8.964;2022-09-01T03:40:45;47.13;44.29;53.33;;
36217;Laerm;22259;48.792;8.964;2022-09-01T03:43:11;45.41;43.33;48.82;;
36217;Laerm;22259;48.792;8.964;2022-09-01T03:45:38;51.45;42.86;67.84;;
36217;Laerm;22259;48.792;8.964;2022-09-01T03:48:05;50.69;43.22;67.51;;
36217;Laerm;22259;48.792;8.964;2022-09-01T03:50:33;46.37;43.60;50.07;;
36217;Laerm;22259;48.792;8.964;2022-09-01T03:53:02;45.62;43.17;48.37;;
36217;Laerm;22259;48.792;8.964;2022-09-01T03:55:28;44.08;42.04;46.07;;
36217;Laerm;22259;48.792;8.964;2022-09-01T03:57:59;47.69;41.20;60.59;;
36217;Laerm;22259;48.792;8.964;2022-09-01T04:00:26;49.42;42.20;63.86;;
36217;Laerm;22259;48.792;8.964;2022-09-01T04:02:55;44.49;42.24;47.48;;
36217;Laerm;22259;48.792;8.964;2022-09-01T04:05:21;50.62;42.66;67.84;;
36217;Laerm;22259;48.792;8.964;2022-09-01T04:07:47;44.38;42.37;46.94;;
36217;Laerm;22259;48.792;8.964;2022-09-01T04:10:14;44.80;42.64;48.34;;
36217;Laerm;22259;48.792;8.964;2022-09-01T04:12:42;45.43;42.56;50.39;;
36217;Laerm;22259;48.792;8.964;2022-09-01T04:15:07;51.28;43.04;67.23;;
36217;Laerm;22259;48.792;8.964;2022-09-01T04:17:33;49.88;42.96;65.70;;
36217;Laerm;22259;48.792;8.964;2022-09-01T04:20:17;44.65;42.55;53.46;;
36217;Laerm;22259;48.792;8.964;2022-09-01T04:22:44;45.42;42.56;48.78;;
36217;Laerm;22259;48.792;8.964;2022-09-01T04:25:11;45.29;43.37;48.59;;
36217;Laerm;22259;48.792;8.964;2022-09-01T04:27:37;44.77;42.97;48.25;;
36217;Laerm;22259;48.792;8.964;2022-09-01T04:30:05;49.28;42.68;64.57;;
36217;Laerm;22259;48.792;8.964;2022-09-01T04:32:37;49.00;43.08;61.74;;
36217;Laerm;22259;48.792;8.964;2022-09-01T04:35:04;45.04;42.79;47.45;;
36217;Laerm;22259;48.792;8.964;2022-09-01T04:37:31;46.31;43.84;61.46;;
36217;Laerm;22259;48.792;8.964;2022-09-01T04:39:56;46.42;43.79;62.73;;
36217;Laerm;22259;48.792;8.964;2022-09-01T04:42:22;46.15;43.74;55.97;;
36217;Laerm;22259;48.792;8.964;2022-09-01T04:44:51;51.63;44.77;69.76;;
36217;Laerm;22259;48.792;8.964;2022-09-01T04:47:17;52.32;43.73;70.35;;
36217;Laerm;22259;48.792;8.964;2022-09-01T04:49:57;45.94;43.56;52.94;;
36217;Laerm;22259;48.792;8.964;2022-09-01T04:52:24;45.29;43.65;51.49;;
36217;Laerm;22259;48.792;8.964;2022-09-01T04:54:50;45.92;43.50;52.00;;
36217;Laerm;22259;48.792;8.964;2022-09-01T04:57:15;45.97;43.61;58.17;;
36217;Laerm;22259;48.792;8.964;2022-09-01T04:59:41;46.47;43.36;61.16;;
36217;Laerm;22259;48.792;8.964;2022-09-01T05:02:07;52.71;44.16;69.39;;
36217;Laerm;22259;48.792;8.964;2022-09-01T05:04:33;57.63;43.86;74.32;;
36217;Laerm;22259;48.792;8.964;2022-09-01T05:06:59;45.93;43.57;55.00;;
36217;Laerm;22259;48.792;8.964;2022-09-01T05:09:28;45.99;43.77;55.22;;
36217;Laerm;22259;48.792;8.964;2022-09-01T05:11:54;45.48;43.33;49.76;;
36217;Laerm;22259;48.792;8.964;2022-09-01T05:14:20;45.83;43.17;56.10;;
36217;Laerm;22259;48.792;8.964;2022-09-01T05:16:48;53.94;42.94;69.06;;
36217;Laerm;22259;48.792;8.964;2022-09-01T05:19:15;46.54;43.72;58.77;;
36217;Laerm;22259;48.792;8.964;2022-09-01T05:21:45;49.40;43.57;66.09;;
36217;Laerm;22259;48.792;8.964;2022-09-01T05:24:20;63.48;44.18;79.30;;
36217;Laerm;22259;48.792;8.964;2022-09-01T05:26:46;45.49;43.24;59.38;;
36217;Laerm;22259;48.792;8.964;2022-09-01T05:29:13;45.71;43.96;52.89;;
36217;Laerm;22259;48.792;8.964;2022-09-01T05:31:40;52.23;43.62;75.89;;
36217;Laerm;22259;48.792;8.964;2022-09-01T05:34:06;48.17;43.01;73.72;;
36217;Laerm;22259;48.792;8.964;2022-09-01T05:36:34;54.69;42.76;70.41;;
36217;Laerm;22259;48.792;8.964;2022-09-01T05:39:00;44.19;42.04;48.78;;
36217;Laerm;22259;48.792;8.964;2022-09-01T05:41:26;43.91;41.94;52.82;;
36217;Laerm;22259;48.792;8.964;2022-09-01T05:43:52;49.53;41.89;72.53;;
36217;Laerm;22259;48.792;8.964;2022-09-01T05:46:22;54.12;42.65;69.03;;
36217;Laerm;22259;48.792;8.964;2022-09-01T05:48:48;44.39;42.33;49.71;;
36217;Laerm;22259;48.792;8.964;2022-09-01T05:51:14;44.64;42.35;53.54;;
36217;Laerm;22259;48.792;8.964;2022-09-01T05:53:42;43.96;42.01;52.98;;
36217;Laerm;22259;48.792;8.964;2022-09-01T05:56:08;43.96;42.18;49.17;;
36217;Laerm;22259;48.792;8.964;2022-09-01T05:58:34;44.40;41.84;62.34;;
36217;Laerm;22259;48.792;8.964;2022-09-01T06:01:00;51.49;42.11;64.40;;
36217;Laerm;22259;48.792;8.964;2022-09-01T06:03:26;44.58;42.38;54.63;;
36217;Laerm;22259;48.792;8.964;2022-09-01T06:05:53;44.26;42.30;51.04;;
36217;Laerm;22259;48.792;8.964;2022-09-01T06:08:20;43.69;41.02;52.21;;
36217;Laerm;22259;48.792;8.964;2022-09-01T06:10:47;43.38;41.08;52.05;;
36217;Laerm;22259;48.792;8.964;2022-09-01T06:13:14;43.67;41.46;53.06;;
36217;Laerm;22259;48.792;8.964;2022-09-01T06:15:41;50.98;41.32;67.33;;
36217;Laerm;22259;48.792;8.964;2022-09-01T06:18:07;51.89;41.55;69.01;;
36217;Laerm;22259;48.792;8.964;2022-09-01T06:20:39;44.28;41.84;56.51;;
36217;Laerm;22259;48.792;8.964;2022-09-01T06:23:05;43.53;41.22;50.73;;
36217;Laerm;22259;48.792;8.964;2022-09-01T06:25:30;43.52;40.91;55.40;;
36217;Laerm;22259;48.792;8.964;2022-09-01T06:27:57;43.38;41.44;50.01;;
36217;Laerm;22259;48.792;8.964;2022-09-01T06:30:22;48.16;41.51;66.05;;
36217;Laerm;22259;48.792;8.964;2022-09-01T06:32:53;49.26;41.70;65.22;;
36217;Laerm;22259;48.792;8.964;2022-09-01T06:35:21;52.79;41.42;79.53;;
36217;Laerm;22259;48.792;8.964;2022-09-01T06:37:54;43.34;41.17;50.77;;
36217;Laerm;22259;48.792;8.964;2022-09-01T06:40:20;43.80;41.31;55.21;;
36217;Laerm;22259;48.792;8.964;2022-09-01T06:42:50;43.47;40.97;51.94;;
36217;Laerm;22259;48.792;8.964;2022-09-01T06:45:17;50.41;41.14;67.59;;
36217;Laerm;22259;48.792;8.964;2022-09-01T06:47:44;49.28;41.18;64.31;;
36217;Laerm;22259;48.792;8.964;2022-09-01T06:50:13;45.15;40.71;61.68;;
36217;Laerm;22259;48.792;8.964;2022-09-01T06:52:42;43.49;40.95;57.50;;
36217;Laerm;22259;48.792;8.964;2022-09-01T06:55:11;43.87;40.82;60.28;;
36217;Laerm;22259;48.792;8.964;2022-09-01T06:57:37;48.92;41.24;61.19;;
36217;Laerm;22259;48.792;8.964;2022-09-01T07:00:08;49.00;41.01;64.27;;
36217;Laerm;22259;48.792;8.964;2022-09-01T07:02:42;48.10;41.72;60.39;;
36217;Laerm;22259;48.792;8.964;2022-09-01T07:05:08;44.12;41.20;66.31;;
36217;Laerm;22259;48.792;8.964;2022-09-01T07:07:34;44.09;41.59;52.85;;
36217;Laerm;22259;48.792;8.964;2022-09-01T07:10:02;44.93;42.82;63.74;;
36217;Laerm;22259;48.792;8.964;2022-09-01T07:12:28;45.25;42.94;53.57;;
36217;Laerm;22259;48.792;8.964;2022-09-01T07:14:54;51.41;43.23;66.07;;
36217;Laerm;22259;48.792;8.964;2022-09-01T07:17:21;50.58;42.59;64.87;;
36217;Laerm;22259;48.792;8.964;2022-09-01T07:19:48;53.85;43.02;70.84;;
36217;Laerm;22259;48.792;8.964;2022-09-01T07:22:13;55.39;43.65;67.46;;
36217;Laerm;22259;48.792;8.964;2022-09-01T07:24:39;52.45;42.06;66.87;;
36217;Laerm;22259;48.792;8.964;2022-09-01T07:27:04;43.65;41.06;50.80;;
36217;Laerm;22259;48.792;8.964;2022-09-01T07:29:29;50.22;41.68;65.51;;
36217;Laerm;22259;48.792;8.964;2022-09-01T07:31:57;51.09;41.32;68.76;;
36217;Laerm;22259;48.792;8.964;2022-09-01T07:34:23;43.93;40.87;50.89;;
36217;Laerm;22259;48.792;8.964;2022-09-01T07:36:50;43.57;41.56;47.34;;
36217;Laerm;22259;48.792;8.964;2022-09-01T07:39:20;43.55;41.26;50.07;;
36217;Laerm;22259;48.792;8.964;2022-09-01T07:41:46;43.85;40.53;58.61;;
36217;Laerm;22259;48.792;8.964;2022-09-01T07:44:12;44.15;41.28;52.85;;
36217;Laerm;22259;48.792;8.964;2022-09-01T07:46:38;52.38;41.40;64.79;;
36217;Laerm;22259;48.792;8.964;2022-09-01T07:49:04;43.39;40.67;53.47;;
36217;Laerm;22259;48.792;8.964;2022-09-01T07:51:30;43.51;40.97;45.99;;
36217;Laerm;22259;48.792;8.964;2022-09-01T07:53:57;43.66;41.04;59.70;;
36217;Laerm;22259;48.792;8.964;2022-09-01T07:56:23;43.54;40.73;63.80;;
36217;Laerm;22259;48.792;8.964;2022-09-01T07:58:49;43.68;40.82;51.78;;
36217;Laerm;22259;48.792;8.964;2022-09-01T08:01:16;52.48;41.26;66.50;;
36217;Laerm;22259;48.792;8.964;2022-09-01T08:03:43;43.53;41.24;53.72;;
36217;Laerm;22259;48.792;8.964;2022-09-01T08:06:11;43.18;40.76;51.80;;
36217;Laerm;22259;48.792;8.964;2022-09-01T08:08:37;43.77;41.02;55.14;;
36217;Laerm;22259;48.792;8.964;2022-09-01T08:11:04;44.04;41.31;57.46;;
36217;Laerm;22259;48.792;8.964;2022-09-01T08:13:29;43.24;40.16;55.95;;
36217;Laerm;22259;48.792;8.964;2022-09-01T08:15:55;54.36;40.38;66.78;;
36217;Laerm;22259;48.792;8.964;2022-09-01T08:18:20;43.44;40.73;56.08;;
36217;Laerm;22259;48.792;8.964;2022-09-01T08:20:46;43.72;41.26;46.59;;
36217;Laerm;22259;48.792;8.964;2022-09-01T08:23:13;43.57;40.76;55.20;;
36217;Laerm;22259;48.792;8.964;2022-09-01T08:25:40;43.26;40.26;47.17;;
36217;Laerm;22259;48.792;8.964;2022-09-01T08:28:06;42.77;40.16;47.44;;
36217;Laerm;22259;48.792;8.964;2022-09-01T08:30:32;46.54;39.95;60.60;;
36217;Laerm;22259;48.792;8.964;2022-09-01T08:32:58;48.89;40.50;65.29;;
36217;Laerm;22259;48.792;8.964;2022-09-01T08:35:24;42.78;40.31;56.70;;
36217;Laerm;22259;48.792;8.964;2022-09-01T08:37:50;43.88;40.82;58.39;;
36217;Laerm;22259;48.792;8.964;2022-09-01T08:40:17;43.46;40.89;54.05;;
36217;Laerm;22259;48.792;8.964;2022-09-01T08:47:45;50.29;40.41;69.28;;
36217;Laerm;22259;48.792;8.964;2022-09-01T08:50:11;43.79;40.41;58.43;;
36217;Laerm;22259;48.792;8.964;2022-09-01T08:52:39;43.95;41.24;54.32;;
36217;Laerm;22259;48.792;8.964;2022-09-01T08:55:14;43.72;41.30;51.15;;
36217;Laerm;22259;48.792;8.964;2022-09-01T08:57:41;44.86;40.95;60.59;;
36217;Laerm;22259;48.792;8.964;2022-09-01T09:00:09;50.81;40.71;69.02;;
36217;Laerm;22259;48.792;8.964;2022-09-01T09:02:50;49.94;41.18;64.76;;
36217;Laerm;22259;48.792;8.964;2022-09-01T09:08:09;57.42;42.11;74.79;;
36217;Laerm;22259;48.792;8.964;2022-09-01T09:10:43;44.04;40.89;47.86;;
36217;Laerm;22259;48.792;8.964;2022-09-01T09:13:19;44.17;41.18;48.94;;
36217;Laerm;22259;48.792;8.964;2022-09-01T09:16:06;52.66;41.22;68.37;;
36217;Laerm;22259;48.792;8.964;2022-09-01T09:18:39;49.96;40.50;64.74;;
36217;Laerm;22259;48.792;8.964;2022-09-01T09:21:11;43.89;41.48;57.97;;
36217;Laerm;22259;48.792;8.964;2022-09-01T09:23:40;43.66;40.93;50.23;;
36217;Laerm;22259;48.792;8.964;2022-09-01T09:26:06;44.29;41.24;61.55;;
36217;Laerm;22259;48.792;8.964;2022-09-01T09:28:31;44.15;41.99;52.09;;
36217;Laerm;22259;48.792;8.964;2022-09-01T09:33:41;48.10;41.57;71.67;;
36217;Laerm;22259;48.792;8.964;2022-09-01T09:36:20;45.24;42.22;52.44;;
36217;Laerm;22259;48.792;8.964;2022-09-01T09:38:46;43.62;41.22;57.97;;
36217;Laerm;22259;48.792;8.964;2022-09-01T09:41:27;43.94;40.93;61.07;;
36217;Laerm;22259;48.792;8.964;2022-09-01T09:44:00;44.54;41.53;56.01;;
36217;Laerm;22259;48.792;8.964;2022-09-01T09:49:18;44.34;41.34;51.42;;
36217;Laerm;22259;48.792;8.964;2022-09-01T09:51:46;48.52;41.66;71.78;;
36217;Laerm;22259;48.792;8.964;2022-09-01T09:54:14;46.78;44.13;68.87;;
36217;Laerm;22259;48.792;8.964;2022-09-01T09:56:40;43.48;40.95;51.90;;
36217;Laerm;22259;48.792;8.964;2022-09-01T10:03:36;55.48;41.66;73.96;;
36217;Laerm;22259;48.792;8.964;2022-09-01T10:06:02;44.85;41.59;65.52;;
36217;Laerm;22259;48.792;8.964;2022-09-01T10:11:24;42.94;39.87;67.00;;
36217;Laerm;22259;48.792;8.964;2022-09-01T10:13:51;43.18;40.36;57.64;;
36217;Laerm;22259;48.792;8.964;2022-09-01T10:16:22;53.89;41.91;68.54;;
36217;Laerm;22259;48.792;8.964;2022-09-01T10:18:49;43.79;41.88;49.81;;
36217;Laerm;22259;48.792;8.964;2022-09-01T10:21:49;43.76;41.26;52.47;;
36217;Laerm;22259;48.792;8.964;2022-09-01T10:24:16;43.82;41.51;50.51;;
36217;Laerm;22259;48.792;8.964;2022-09-01T10:26:44;43.91;41.02;49.51;;
36217;Laerm;22259;48.792;8.964;2022-09-01T10:29:12;43.39;40.91;58.86;;
36217;Laerm;22259;48.792;8.964;2022-09-01T10:31:40;51.88;42.18;65.05;;
36217;Laerm;22259;48.792;8.964;2022-09-01T10:34:06;44.14;41.61;54.49;;
36217;Laerm;22259;48.792;8.964;2022-09-01T10:36:35;44.18;41.42;52.23;;
36217;Laerm;22259;48.792;8.964;2022-09-01T10:39:02;43.49;41.30;49.09;;
36217;Laerm;22259;48.792;8.964;2022-09-01T10:44:34;43.56;40.31;57.44;;
36217;Laerm;22259;48.792;8.964;2022-09-01T10:47:07;54.16;41.00;69.50;;
36217;Laerm;22259;48.792;8.964;2022-09-01T10:49:57;44.10;40.89;67.48;;
36217;Laerm;22259;48.792;8.964;2022-09-01T11:05:24;43.57;41.16;55.55;;
36217;Laerm;22259;48.792;8.964;2022-09-01T11:07:50;43.71;41.32;52.43;;
36217;Laerm;22259;48.792;8.964;2022-09-01T11:10:37;43.61;41.55;52.55;;
36217;Laerm;22259;48.792;8.964;2022-09-01T11:13:48;43.29;40.69;54.40;;
36217;Laerm;22259;48.792;8.964;2022-09-01T11:17:16;52.73;39.92;67.49;;
36217;Laerm;22259;48.792;8.964;2022-09-01T11:19:43;43.28;40.36;50.83;;
36217;Laerm;22259;48.792;8.964;2022-09-01T11:22:13;44.33;41.22;57.75;;
36217;Laerm;22259;48.792;8.964;2022-09-01T11:27:55;43.53;40.82;56.55;;
36217;Laerm;22259;48.792;8.964;2022-09-01T11:30:22;49.28;41.06;63.69;;
36217;Laerm;22259;48.792;8.964;2022-09-01T11:32:50;48.96;40.67;63.72;;
36217;Laerm;22259;48.792;8.964;2022-09-01T11:35:18;43.16;40.82;48.55;;
36217;Laerm;22259;48.792;8.964;2022-09-01T11:37:48;43.16;40.95;49.45;;
36217;Laerm;22259;48.792;8.964;2022-09-01T11:40:19;44.10;41.42;54.34;;
36217;Laerm;22259;48.792;8.964;2022-09-01T11:42:45;44.91;42.44;55.11;;
36217;Laerm;22259;48.792;8.964;2022-09-01T11:45:20;51.52;43.29;66.23;;
36217;Laerm;22259;48.792;8.964;2022-09-01T11:47:51;51.25;43.00;68.58;;
36217;Laerm;22259;48.792;8.964;2022-09-01T11:50:22;54.82;43.39;70.78;;
36217;Laerm;22259;48.792;8.964;2022-09-01T11:52:54;45.26;43.36;50.08;;
36217;Laerm;22259;48.792;8.964;2022-09-01T11:55:34;45.69;43.69;48.47;;
36217;Laerm;22259;48.792;8.964;2022-09-01T12:00:45;49.70;43.15;66.36;;
36217;Laerm;22259;48.792;8.964;2022-09-01T12:03:29;52.24;43.32;69.56;;
36217;Laerm;22259;48.792;8.964;2022-09-01T12:05:56;45.33;43.12;54.15;;
36217;Laerm;22259;48.792;8.964;2022-09-01T12:08:25;45.30;43.12;60.30;;
36217;Laerm;22259;48.792;8.964;2022-09-01T12:11:01;45.60;43.38;53.28;;
36217;Laerm;22259;48.792;8.964;2022-09-01T12:13:27;45.96;43.41;52.90;;
36217;Laerm;22259;48.792;8.964;2022-09-01T12:15:54;52.20;43.37;70.63;;
36217;Laerm;22259;48.792;8.964;2022-09-01T12:18:21;52.68;43.78;68.86;;
36217;Laerm;22259;48.792;8.964;2022-09-01T12:20:47;44.39;41.36;48.78;;
36217;Laerm;22259;48.792;8.964;2022-09-01T12:23:30;51.02;41.50;70.78;;
36217;Laerm;22259;48.792;8.964;2022-09-01T12:26:04;43.33;40.85;52.44;;
36217;Laerm;22259;48.792;8.964;2022-09-01T12:28:30;43.47;41.28;55.57;;
36217;Laerm;22259;48.792;8.964;2022-09-01T12:30:58;52.58;41.03;66.95;;
36217;Laerm;22259;48.792;8.964;2022-09-01T12:33:24;44.50;40.93;53.72;;
36217;Laerm;22259;48.792;8.964;2022-09-01T12:35:50;43.36;41.04;47.66;;
36217;Laerm;22259;48.792;8.964;2022-09-01T12:38:22;47.91;40.93;65.50;;
36217;Laerm;22259;48.792;8.964;2022-09-01T12:40:50;43.06;40.33;46.54;;
36217;Laerm;22259;48.792;8.964;2022-09-01T12:43:26;44.81;41.02;54.57;;
36217;Laerm;22259;48.792;8.964;2022-09-01T12:45:52;54.30;42.06;67.93;;
36217;Laerm;22259;48.792;8.964;2022-09-01T12:48:28;48.31;43.01;67.20;;
36217;Laerm;22259;48.792;8.964;2022-09-01T12:50:55;45.26;43.14;50.82;;
36217;Laerm;22259;48.792;8.964;2022-09-01T12:53:23;45.07;43.13;53.71;;
36217;Laerm;22259;48.792;8.964;2022-09-01T12:56:33;45.72;43.57;57.89;;
36217;Laerm;22259;48.792;8.964;2022-09-01T12:59:09;45.14;42.85;56.78;;
36217;Laerm;22259;48.792;8.964;2022-09-01T13:01:36;54.64;43.19;74.97;;
36217;Laerm;22259;48.792;8.964;2022-09-01T13:04:07;45.23;43.26;48.21;;
36217;Laerm;22259;48.792;8.964;2022-09-01T13:06:34;49.47;43.10;64.26;;
36217;Laerm;22259;48.792;8.964;2022-09-01T13:08:59;45.48;43.27;58.14;;
36217;Laerm;22259;48.792;8.964;2022-09-01T13:11:24;45.71;43.55;53.92;;
36217;Laerm;22259;48.792;8.964;2022-09-01T13:13:50;45.99;43.32;53.00;;
36217;Laerm;22259;48.792;8.964;2022-09-01T13:16:15;51.31;43.01;65.94;;
36217;Laerm;22259;48.792;8.964;2022-09-01T13:18:42;54.93;44.18;72.42;;
36217;Laerm;22259;48.792;8.964;2022-09-01T13:21:07;45.86;43.28;59.86;;
36217;Laerm;22259;48.792;8.964;2022-09-01T13:23:33;58.13;43.51;73.68;;
36217;Laerm;22259;48.792;8.964;2022-09-01T13:25:58;45.77;43.56;57.57;;
36217;Laerm;22259;48.792;8.964;2022-09-01T13:28:24;45.22;42.96;56.12;;
36217;Laerm;22259;48.792;8.964;2022-09-01T13:30:52;53.33;43.62;65.88;;
36217;Laerm;22259;48.792;8.964;2022-09-01T13:33:18;45.84;42.41;56.68;;
36217;Laerm;22259;48.792;8.964;2022-09-01T13:35:43;46.36;42.65;58.05;;
36217;Laerm;22259;48.792;8.964;2022-09-01T13:38:09;44.66;42.11;56.03;;
36217;Laerm;22259;48.792;8.964;2022-09-01T13:40:34;44.90;42.21;57.71;;
36217;Laerm;22259;48.792;8.964;2022-09-01T13:42:59;44.34;41.36;48.22;;
36217;Laerm;22259;48.792;8.964;2022-09-01T13:45:26;52.08;42.24;67.93;;
36217;Laerm;22259;48.792;8.964;2022-09-01T13:47:52;51.89;42.35;65.31;;
36217;Laerm;22259;48.792;8.964;2022-09-01T13:50:19;44.31;41.88;54.08;;
36217;Laerm;22259;48.792;8.964;2022-09-01T13:52:46;43.55;40.97;49.22;;
36217;Laerm;22259;48.792;8.964;2022-09-01T13:55:13;43.92;40.82;53.76;;
36217;Laerm;22259;48.792;8.964;2022-09-01T13:57:39;43.71;41.24;50.74;;
36217;Laerm;22259;48.792;8.964;2022-09-01T14:00:07;50.00;41.24;68.06;;
36217;Laerm;22259;48.792;8.964;2022-09-01T14:02:35;51.57;40.76;70.27;;
36217;Laerm;22259;48.792;8.964;2022-09-01T14:05:00;44.95;41.18;50.99;;
36217;Laerm;22259;48.792;8.964;2022-09-01T14:07:26;54.31;40.53;67.55;;
36217;Laerm;22259;48.792;8.964;2022-09-01T14:09:51;43.70;40.46;51.90;;
36217;Laerm;22259;48.792;8.964;2022-09-01T14:12:16;45.05;40.71;69.77;;
36217;Laerm;22259;48.792;8.964;2022-09-01T14:14:42;45.66;40.71;60.21;;
36217;Laerm;22259;48.792;8.964;2022-09-01T14:17:07;53.96;41.00;69.10;;
36217;Laerm;22259;48.792;8.964;2022-09-01T14:19:33;57.53;41.00;74.91;;
36217;Laerm;22259;48.792;8.964;2022-09-01T14:22:00;43.35;41.02;53.79;;
36217;Laerm;22259;48.792;8.964;2022-09-01T14:24:30;43.73;41.10;52.01;;
36217;Laerm;22259;48.792;8.964;2022-09-01T14:26:55;43.12;40.48;50.56;;
36217;Laerm;22259;48.792;8.964;2022-09-01T14:29:20;44.67;41.08;54.02;;
36217;Laerm;22259;48.792;8.964;2022-09-01T14:31:46;52.46;41.34;65.34;;
36217;Laerm;22259;48.792;8.964;2022-09-01T14:34:11;48.24;41.77;59.65;;
36217;Laerm;22259;48.792;8.964;2022-09-01T14:36:37;43.80;40.91;52.54;;